createdAt,value
2018-07-28T00:00:27.877Z,86.99
2018-07-28T00:01:27.827Z,86.99
2018-07-28T00:02:27.843Z,86.59
2018-07-28T00:03:27.801Z,86.49
2018-07-28T00:04:27.819Z,86.29
2018-07-28T00:05:27.797Z,86.08
2018-07-28T00:06:27.783Z,86.22
2018-07-28T00:07:27.782Z,86.33
2018-07-28T00:08:27.779Z,85.82
2018-07-28T00:09:27.754Z,85.72
2018-07-28T00:10:27.762Z,86.73
2018-07-28T00:11:27.726Z,86.22
2018-07-28T00:12:27.706Z,86.93
2018-07-28T00:13:27.705Z,86.43
2018-07-28T00:14:27.707Z,86.02
2018-07-28T00:15:27.693Z,86.02
2018-07-28T00:16:27.673Z,86.22
2018-07-28T00:17:27.638Z,85.96
2018-07-28T00:18:27.631Z,85.93
2018-07-28T00:19:27.666Z,86.13
2018-07-28T00:20:27.641Z,86.73
2018-07-28T00:21:27.655Z,87.13
2018-07-28T00:22:27.586Z,86.73
2018-07-28T00:23:27.591Z,86.43
2018-07-28T00:24:27.600Z,86.63
2018-07-28T00:25:27.606Z,86.43
2018-07-28T00:26:27.571Z,87.04
2018-07-28T00:27:27.552Z,86.53
2018-07-28T00:28:27.537Z,86.43
2018-07-28T00:29:27.528Z,86.33
2018-07-28T00:30:27.533Z,86.43
2018-07-28T00:31:27.535Z,86.63
2018-07-28T00:32:27.475Z,87.28
2018-07-28T00:33:27.482Z,86.93
2018-07-28T00:34:27.474Z,87.88
2018-07-28T00:35:27.470Z,86.83
2018-07-28T00:36:27.455Z,86.37
2018-07-28T00:37:27.456Z,86.37
2018-07-28T00:38:27.477Z,86.37
2018-07-28T00:39:27.392Z,86.87
2018-07-28T00:40:27.408Z,86.47
2018-07-28T00:41:27.387Z,86.53
2018-07-28T00:42:27.387Z,87.28
2018-07-28T00:43:27.348Z,86.67
2018-07-28T00:44:27.383Z,87.08
2018-07-28T00:45:27.323Z,86.77
2018-07-28T00:46:27.329Z,87.38
2018-07-28T00:47:27.349Z,86.98
2018-07-28T00:48:27.306Z,87.28
2018-07-28T00:49:27.295Z,86.98
2018-07-28T00:50:27.306Z,86.37
2018-07-28T00:51:27.257Z,86.27
2018-07-28T00:52:27.267Z,86.47
2018-07-28T00:53:27.272Z,86.37
2018-07-28T00:54:27.254Z,86.47
2018-07-28T00:55:27.230Z,86.71
2018-07-28T00:56:27.195Z,86.77
2018-07-28T00:57:27.223Z,86.87
2018-07-28T00:58:27.184Z,87.88
2018-07-28T00:59:27.183Z,88.09
2018-07-28T01:00:27.194Z,88.02
2018-07-28T01:01:27.163Z,87.28
2018-07-28T01:02:27.160Z,87.28
2018-07-28T01:03:27.168Z,87.38
2018-07-28T01:04:27.156Z,87.48
2018-07-28T01:05:27.114Z,86.98
2018-07-28T01:06:27.101Z,86.98
2018-07-28T01:07:27.090Z,86.87
2018-07-28T01:08:27.072Z,86.77
2018-07-28T01:09:27.085Z,86.57
2018-07-28T01:10:27.048Z,86.41
2018-07-28T01:11:27.060Z,86.47
2018-07-28T01:12:27.083Z,85.90
2018-07-28T01:13:27.005Z,85.66
2018-07-28T01:14:26.999Z,86.10
2018-07-28T01:15:27.022Z,86.31
2018-07-28T01:16:26.997Z,86.41
2018-07-28T01:17:26.976Z,86.51
2018-07-28T01:18:26.979Z,87.02
2018-07-28T01:19:26.954Z,86.96
2018-07-28T01:20:26.934Z,86.85
2018-07-28T01:21:26.948Z,87.42
2018-07-28T01:22:26.911Z,87.26
2018-07-28T01:23:26.921Z,87.05
2018-07-28T01:24:26.917Z,87.36
2018-07-28T01:25:26.888Z,87.16
2018-07-28T01:26:26.865Z,87.36
2018-07-28T01:27:26.879Z,87.02
2018-07-28T01:28:26.837Z,86.71
2018-07-28T01:29:26.846Z,87.26
2018-07-28T01:30:26.837Z,87.22
2018-07-28T01:31:26.804Z,87.02
2018-07-28T01:32:26.823Z,87.46
2018-07-28T01:33:26.797Z,86.91
2018-07-28T01:34:26.772Z,87.36
2018-07-28T01:35:26.759Z,87.36
2018-07-28T01:36:26.780Z,87.16
2018-07-28T01:37:26.748Z,86.82
2018-07-28T01:38:26.770Z,87.32
2018-07-28T01:39:26.710Z,86.45
2018-07-28T01:40:26.712Z,86.65
2018-07-28T01:41:26.730Z,86.82
2018-07-28T01:42:26.719Z,86.91
2018-07-28T01:43:26.684Z,87.36
2018-07-28T01:44:26.672Z,87.46
2018-07-28T01:45:26.668Z,87.56
2018-07-28T01:46:26.653Z,87.36
2018-07-28T01:47:26.632Z,87.46
2018-07-28T01:48:26.658Z,87.26
2018-07-28T01:49:26.620Z,87.16
2018-07-28T01:50:26.588Z,88.37
2018-07-28T01:51:26.596Z,87.36
2018-07-28T01:52:26.580Z,87.36
2018-07-28T01:53:26.599Z,87.36
2018-07-28T01:54:26.557Z,86.45
2018-07-28T01:55:26.553Z,86.76
2018-07-28T01:56:26.548Z,86.85
2018-07-28T01:57:26.514Z,86.85
2018-07-28T01:58:26.502Z,87.26
2018-07-28T01:59:26.512Z,88.37
2018-07-28T02:00:27.440Z,88.37
2018-07-28T02:01:26.481Z,87.66
2018-07-28T02:02:26.465Z,87.46
2018-07-28T02:03:26.449Z,87.20
2018-07-28T02:04:26.422Z,86.90
2018-07-28T02:05:26.425Z,86.69
2018-07-28T02:06:26.456Z,86.79
2018-07-28T02:07:26.414Z,86.59
2018-07-28T02:08:26.416Z,86.59
2018-07-28T02:09:26.387Z,86.90
2018-07-28T02:10:26.386Z,86.69
2018-07-28T02:11:26.349Z,87.30
2018-07-28T02:12:26.357Z,87.51
2018-07-28T02:13:26.323Z,87.20
2018-07-28T02:14:26.320Z,87.51
2018-07-28T02:15:26.316Z,87.10
2018-07-28T02:16:26.289Z,87.30
2018-07-28T02:17:26.276Z,87.30
2018-07-28T02:18:26.299Z,86.90
2018-07-28T02:19:26.298Z,86.79
2018-07-28T02:20:26.248Z,86.39
2018-07-28T02:21:26.944Z,86.79
2018-07-28T02:22:26.218Z,86.69
2018-07-28T02:23:26.224Z,86.53
2018-07-28T02:24:26.196Z,86.59
2018-07-28T02:25:26.227Z,87.45
2018-07-28T02:26:26.202Z,87.24
2018-07-28T02:27:26.164Z,87.45
2018-07-28T02:28:26.182Z,87.34
2018-07-28T02:29:26.138Z,88.35
2018-07-28T02:30:26.129Z,87.60
2018-07-28T02:31:26.117Z,87.40
2018-07-28T02:32:26.135Z,87.34
2018-07-28T02:33:26.096Z,87.45
2018-07-28T02:34:26.092Z,87.40
2018-07-28T02:35:26.074Z,87.51
2018-07-28T02:36:26.063Z,88.31
2018-07-28T02:37:26.084Z,88.35
2018-07-28T02:38:26.038Z,87.65
2018-07-28T02:39:26.031Z,88.21
2018-07-28T02:40:26.055Z,88.46
2018-07-28T02:41:26.035Z,88.05
2018-07-28T02:42:26.018Z,88.15
2018-07-28T02:43:26.066Z,88.46
2018-07-28T02:44:26.001Z,87.95
2018-07-28T02:45:25.961Z,88.46
2018-07-28T02:46:25.982Z,88.46
2018-07-28T02:47:25.936Z,88.35
2018-07-28T02:48:25.926Z,88.15
2018-07-28T02:49:25.936Z,88.25
2018-07-28T02:50:25.900Z,87.54
2018-07-28T02:51:25.910Z,88.35
2018-07-28T02:52:25.911Z,88.15
2018-07-28T02:53:25.865Z,88.35
2018-07-28T02:54:25.883Z,87.45
2018-07-28T02:55:25.848Z,88.46
2018-07-28T02:56:25.843Z,88.15
2018-07-28T02:57:25.842Z,87.54
2018-07-28T02:58:25.836Z,88.46
2018-07-28T02:59:25.802Z,88.15
2018-07-28T03:00:25.829Z,88.46
2018-07-28T03:01:25.830Z,88.25
2018-07-28T03:02:25.790Z,87.54
2018-07-28T03:03:25.800Z,88.25
2018-07-28T03:04:25.756Z,87.45
2018-07-28T03:05:25.753Z,88.46
2018-07-28T03:06:25.748Z,88.05
2018-07-28T03:07:25.731Z,88.35
2018-07-28T03:08:25.701Z,88.35
2018-07-28T03:09:25.706Z,88.05
2018-07-28T03:10:25.687Z,88.56
2018-07-28T03:11:25.686Z,88.66
2018-07-28T03:12:25.650Z,88.76
2018-07-28T03:13:25.681Z,89.11
2018-07-28T03:14:25.640Z,88.66
2018-07-28T03:15:25.641Z,88.46
2018-07-28T03:16:25.622Z,88.46
2018-07-28T03:17:25.617Z,88.46
2018-07-28T03:18:25.619Z,88.25
2018-07-28T03:19:25.571Z,88.46
2018-07-28T03:20:25.585Z,87.34
2018-07-28T03:21:25.590Z,87.04
2018-07-28T03:22:25.560Z,87.38
2018-07-28T03:23:25.562Z,87.59
2018-07-28T03:24:25.570Z,87.69
2018-07-28T03:25:25.523Z,87.38
2018-07-28T03:26:25.490Z,87.59
2018-07-28T03:27:26.504Z,88.09
2018-07-28T03:28:25.540Z,88.09
2018-07-28T03:29:25.474Z,88.80
2018-07-28T03:30:25.444Z,89.11
2018-07-28T03:31:25.456Z,88.90
2018-07-28T03:32:25.433Z,89.31
2018-07-28T03:33:25.452Z,88.90
2018-07-28T03:34:25.435Z,88.49
2018-07-28T03:35:25.396Z,88.09
2018-07-28T03:36:25.392Z,88.40
2018-07-28T03:37:25.367Z,88.09
2018-07-28T03:38:25.373Z,88.40
2018-07-28T03:39:25.384Z,88.40
2018-07-28T03:40:25.341Z,88.20
2018-07-28T03:41:25.318Z,88.29
2018-07-28T03:42:25.319Z,88.09
2018-07-28T03:43:25.354Z,87.69
2018-07-28T03:44:25.305Z,88.29
2018-07-28T03:45:25.291Z,88.40
2018-07-28T03:46:25.284Z,88.20
2018-07-28T03:47:25.283Z,88.40
2018-07-28T03:48:25.240Z,88.09
2018-07-28T03:49:25.281Z,88.25
2018-07-28T03:50:25.277Z,88.46
2018-07-28T03:51:25.238Z,88.15
2018-07-28T03:52:25.205Z,88.09
2018-07-28T03:53:25.220Z,88.05
2018-07-28T03:54:25.169Z,88.35
2018-07-28T03:55:25.188Z,88.25
2018-07-28T03:56:25.216Z,88.15
2018-07-28T03:57:25.144Z,87.95
2018-07-28T03:58:25.137Z,88.25
2018-07-28T03:59:25.180Z,88.46
2018-07-28T04:00:25.166Z,88.46
2018-07-28T04:01:25.099Z,88.46
2018-07-28T04:02:25.118Z,87.85
2018-07-28T04:03:25.116Z,87.95
2018-07-28T04:04:25.134Z,87.95
2018-07-28T04:05:25.137Z,87.95
2018-07-28T04:06:25.048Z,88.35
2018-07-28T04:07:25.028Z,88.11
2018-07-28T04:08:25.024Z,88.46
2018-07-28T04:09:25.026Z,87.65
2018-07-28T04:10:25.012Z,88.05
2018-07-28T04:11:25.028Z,88.42
2018-07-28T04:12:24.970Z,88.15
2018-07-28T04:13:24.955Z,87.85
2018-07-28T04:14:25.021Z,88.21
2018-07-28T04:15:24.948Z,87.91
2018-07-28T04:16:24.965Z,88.31
2018-07-28T04:17:24.906Z,88.15
2018-07-28T04:18:24.934Z,87.95
2018-07-28T04:19:24.908Z,88.56
2018-07-28T04:20:24.885Z,88.35
2018-07-28T04:21:24.865Z,88.82
2018-07-28T04:22:24.870Z,89.12
2018-07-28T04:23:24.900Z,89.32
2018-07-28T04:24:24.874Z,89.02
2018-07-28T04:25:24.846Z,88.72
2018-07-28T04:26:24.807Z,89.12
2018-07-28T04:27:24.864Z,88.92
2018-07-28T04:28:24.827Z,88.78
2018-07-28T04:29:24.803Z,88.98
2018-07-28T04:30:24.756Z,89.08
2018-07-28T04:31:24.764Z,88.88
2018-07-28T04:32:24.766Z,89.69
2018-07-28T04:33:24.736Z,89.18
2018-07-28T04:34:24.734Z,88.78
2018-07-28T04:35:24.759Z,88.88
2018-07-28T04:36:24.715Z,88.88
2018-07-28T04:37:24.759Z,88.98
2018-07-28T04:38:24.694Z,88.94
2018-07-28T04:39:24.718Z,88.94
2018-07-28T04:40:24.666Z,88.94
2018-07-28T04:41:24.677Z,88.84
2018-07-28T04:42:24.716Z,88.94
2018-07-28T04:43:24.635Z,88.90
2018-07-28T04:44:24.649Z,89.24
2018-07-28T04:45:24.587Z,88.49
2018-07-28T04:46:24.633Z,88.94
2018-07-28T04:47:24.582Z,88.79
2018-07-28T04:48:24.608Z,88.90
2018-07-28T04:49:24.561Z,87.79
2018-07-28T04:50:24.577Z,87.48
2018-07-28T04:51:24.542Z,88.19
2018-07-28T04:52:24.509Z,88.19
2018-07-28T04:53:24.537Z,89.66
2018-07-28T04:54:24.498Z,89.16
2018-07-28T04:55:24.491Z,89.06
2018-07-28T04:56:24.530Z,89.66
2018-07-28T04:57:24.502Z,89.66
2018-07-28T04:58:24.479Z,89.66
2018-07-28T04:59:24.454Z,89.87
2018-07-28T05:00:24.455Z,89.56
2018-07-28T05:01:24.406Z,89.22
2018-07-28T05:02:24.447Z,89.36
2018-07-28T05:03:24.388Z,89.42
2018-07-28T05:04:24.378Z,88.92
2018-07-28T05:05:24.381Z,89.52
2018-07-28T05:06:24.352Z,89.83
2018-07-28T05:07:24.435Z,89.83
2018-07-28T05:08:24.380Z,89.48
2018-07-28T05:09:24.343Z,89.48
2018-07-28T05:10:24.350Z,88.57
2018-07-28T05:11:24.296Z,89.28
2018-07-28T05:12:24.296Z,89.34
2018-07-28T05:13:24.270Z,89.13
2018-07-28T05:14:24.365Z,88.53
2018-07-28T05:15:24.253Z,88.23
2018-07-28T05:16:24.281Z,88.63
2018-07-28T05:17:24.225Z,88.73
2018-07-28T05:18:24.213Z,89.19
2018-07-28T05:19:24.207Z,88.89
2018-07-28T05:20:24.236Z,89.39
2018-07-28T05:21:24.175Z,89.59
2018-07-28T05:22:24.181Z,89.59
2018-07-28T05:23:24.155Z,88.08
2018-07-28T05:24:24.143Z,88.65
2018-07-28T05:25:24.134Z,88.54
2018-07-28T05:26:24.131Z,86.93
2018-07-28T05:27:24.124Z,87.63
2018-07-28T05:28:24.097Z,86.83
2018-07-28T05:29:24.104Z,86.89
2018-07-28T05:30:24.076Z,86.49
2018-07-28T05:31:24.077Z,85.68
2018-07-28T05:32:24.097Z,84.63
2018-07-28T05:33:24.043Z,84.83
2018-07-28T05:34:24.054Z,84.88
2018-07-28T05:35:24.021Z,84.97
2018-07-28T05:36:24.005Z,85.84
2018-07-28T05:37:23.993Z,85.74
2018-07-28T05:38:24.005Z,85.84
2018-07-28T05:39:23.974Z,86.24
2018-07-28T05:40:23.983Z,85.94
2018-07-28T05:41:23.974Z,85.84
2018-07-28T05:42:24.009Z,85.80
2018-07-28T05:43:23.967Z,84.49
2018-07-28T05:44:23.946Z,84.59
2018-07-28T05:45:23.912Z,84.39
2018-07-28T05:46:23.896Z,83.48
2018-07-28T05:47:23.887Z,83.54
2018-07-28T05:48:23.873Z,84.25
2018-07-28T05:49:24.039Z,83.34
2018-07-28T05:50:23.893Z,83.14
2018-07-28T05:51:23.832Z,83.04
2018-07-28T05:52:23.837Z,83.51
2018-07-28T05:53:23.819Z,83.51
2018-07-28T05:54:23.838Z,83.71
2018-07-28T05:55:23.797Z,82.80
2018-07-28T05:56:23.804Z,82.26
2018-07-28T05:57:23.788Z,82.66
2018-07-28T05:58:23.764Z,82.26
2018-07-28T05:59:23.748Z,82.12
2018-07-28T06:00:23.774Z,81.72
2018-07-28T06:01:23.748Z,81.52
2018-07-28T06:02:23.762Z,81.21
2018-07-28T06:03:23.727Z,81.72
2018-07-28T06:04:23.705Z,82.32
2018-07-28T06:05:23.710Z,81.92
2018-07-28T06:06:23.671Z,81.52
2018-07-28T06:07:23.681Z,82.72
2018-07-28T06:08:23.670Z,82.38
2018-07-28T06:09:23.635Z,82.18
2018-07-28T06:10:23.658Z,81.27
2018-07-28T06:11:23.615Z,81.78
2018-07-28T06:12:23.606Z,81.27
2018-07-28T06:13:23.586Z,80.98
2018-07-28T06:14:23.591Z,81.27
2018-07-28T06:15:23.606Z,81.78
2018-07-28T06:16:23.557Z,81.68
2018-07-28T06:17:23.561Z,81.24
2018-07-28T06:18:23.531Z,81.54
2018-07-28T06:19:23.525Z,81.84
2018-07-28T06:20:23.594Z,81.94
2018-07-28T06:21:23.495Z,81.14
2018-07-28T06:22:23.509Z,81.20
2018-07-28T06:23:23.552Z,81.20
2018-07-28T06:24:23.467Z,81.70
2018-07-28T06:25:23.482Z,80.60
2018-07-28T06:26:23.479Z,79.99
2018-07-28T06:27:23.482Z,79.75
2018-07-28T06:28:23.421Z,79.52
2018-07-28T06:29:23.408Z,79.52
2018-07-28T06:30:23.401Z,78.48
2018-07-28T06:31:23.416Z,79.22
2018-07-28T06:32:23.404Z,78.68
2018-07-28T06:33:23.359Z,78.78
2018-07-28T06:34:23.350Z,77.98
2018-07-28T06:35:23.346Z,78.08
2018-07-28T06:36:23.365Z,78.38
2018-07-28T06:37:23.388Z,78.78
2018-07-28T06:38:23.320Z,77.17
2018-07-28T06:39:23.294Z,78.84
2018-07-28T06:40:23.307Z,79.38
2018-07-28T06:41:23.291Z,79.64
2018-07-28T06:42:23.266Z,81.04
2018-07-28T06:43:23.287Z,78.64
2018-07-28T06:44:23.253Z,77.44
2018-07-28T06:45:23.232Z,77.54
2018-07-28T06:46:23.241Z,79.64
2018-07-28T06:47:23.219Z,79.71
2018-07-28T06:48:23.242Z,78.70
2018-07-28T06:49:23.228Z,80.67
2018-07-28T06:50:23.180Z,78.27
2018-07-28T06:51:23.193Z,76.37
2018-07-28T06:52:23.144Z,76.09
2018-07-28T06:53:23.177Z,81.41
2018-07-28T06:54:23.152Z,75.55
2018-07-28T06:55:23.126Z,72.35
2018-07-28T06:56:23.116Z,68.73
2018-07-28T06:57:23.108Z,67.57
2018-07-28T06:58:23.120Z,66.44
2018-07-28T06:59:23.114Z,68.50
2018-07-28T07:00:23.091Z,65.06
2018-07-28T07:01:23.062Z,67.74
2018-07-28T07:02:23.048Z,69.85
2018-07-28T07:03:23.040Z,64.37
2018-07-28T07:04:23.059Z,64.14
2018-07-28T07:05:23.027Z,64.80
2018-07-28T07:06:22.994Z,60.81
2018-07-28T07:07:22.977Z,61.47
2018-07-28T07:08:23.581Z,61.44
2018-07-28T07:09:22.960Z,59.04
2018-07-28T07:10:22.964Z,59.44
2018-07-28T07:11:22.932Z,61.11
2018-07-28T07:12:22.937Z,55.94
2018-07-28T07:13:22.919Z,59.08
2018-07-28T07:14:22.933Z,57.60
2018-07-28T07:15:22.941Z,56.41
2018-07-28T07:16:22.903Z,54.34
2018-07-28T07:17:22.874Z,56.41
2018-07-28T07:18:22.875Z,56.81
2018-07-28T07:19:22.865Z,56.09
2018-07-28T07:20:22.837Z,54.48
2018-07-28T07:21:22.894Z,51.72
2018-07-28T07:22:22.823Z,53.99
2018-07-28T07:23:22.804Z,56.16
2018-07-28T07:24:22.789Z,54.95
2018-07-28T07:25:22.807Z,55.94
2018-07-28T07:26:22.788Z,54.16
2018-07-28T07:27:22.828Z,54.95
2018-07-28T07:28:22.744Z,53.15
2018-07-28T07:29:22.749Z,54.72
2018-07-28T07:30:22.754Z,52.06
2018-07-28T07:31:23.573Z,54.03
2018-07-28T07:32:22.802Z,54.03
2018-07-28T07:33:22.732Z,54.13
2018-07-28T07:34:22.719Z,54.40
2018-07-28T07:35:22.697Z,52.06
2018-07-28T07:36:22.671Z,54.43
2018-07-28T07:37:22.691Z,51.87
2018-07-28T07:38:22.658Z,51.18
2018-07-28T07:39:22.648Z,51.30
2018-07-28T07:40:22.652Z,54.06
2018-07-28T07:41:22.607Z,53.30
2018-07-28T07:42:23.487Z,53.17
2018-07-28T07:43:22.635Z,52.09
2018-07-28T07:44:22.635Z,51.30
2018-07-28T07:45:22.580Z,54.46
2018-07-28T07:46:22.559Z,52.58
2018-07-28T07:47:22.567Z,51.67
2018-07-28T07:48:22.555Z,49.99
2018-07-28T07:49:22.556Z,51.99
2018-07-28T07:50:22.506Z,54.75
2018-07-28T07:51:22.499Z,53.67
2018-07-28T07:52:22.511Z,51.57
2018-07-28T07:53:22.487Z,52.16
2018-07-28T07:54:22.516Z,51.15
2018-07-28T07:55:22.489Z,50.07
2018-07-28T07:56:22.459Z,50.66
2018-07-28T07:57:22.460Z,48.98
2018-07-28T07:58:22.433Z,48.98
2018-07-28T07:59:22.418Z,50.46
2018-07-28T08:00:22.406Z,47.53
2018-07-28T08:01:22.396Z,51.99
2018-07-28T08:02:22.373Z,49.22
2018-07-28T08:03:22.392Z,51.59
2018-07-28T08:04:22.411Z,50.88
2018-07-28T08:05:22.339Z,50.46
2018-07-28T08:06:22.438Z,50.16
2018-07-28T08:07:22.321Z,47.58
2018-07-28T08:08:22.310Z,50.14
2018-07-28T08:09:22.305Z,50.24
2018-07-28T08:10:22.296Z,48.47
2018-07-28T08:11:22.290Z,50.02
2018-07-28T08:12:22.266Z,50.44
2018-07-28T08:13:22.254Z,51.20
2018-07-28T08:14:22.258Z,48.86
2018-07-28T08:15:22.231Z,46.79
2018-07-28T08:16:22.228Z,50.14
2018-07-28T08:17:22.209Z,50.54
2018-07-28T08:18:22.248Z,50.14
2018-07-28T08:19:22.213Z,50.02
2018-07-28T08:20:22.178Z,49.08
2018-07-28T08:21:22.191Z,51.05
2018-07-28T08:22:22.168Z,50.85
2018-07-28T08:23:22.157Z,50.56
2018-07-28T08:24:22.163Z,49.52
2018-07-28T08:25:22.122Z,50.71
2018-07-28T08:26:22.114Z,50.02
2018-07-28T08:27:22.094Z,50.14
2018-07-28T08:28:22.102Z,51.99
2018-07-28T08:29:22.098Z,51.03
2018-07-28T08:30:22.068Z,51.23
2018-07-28T08:31:22.076Z,50.56
2018-07-28T08:32:22.042Z,51.40
2018-07-28T08:33:22.126Z,54.17
2018-07-28T08:34:22.047Z,53.18
2018-07-28T08:35:22.015Z,54.86
2018-07-28T08:36:22.001Z,53.67
2018-07-28T08:37:22.017Z,53.15
2018-07-28T08:38:22.042Z,53.28
2018-07-28T08:39:22.003Z,53.15
2018-07-28T08:40:21.991Z,51.64
2018-07-28T08:41:21.944Z,51.64
2018-07-28T08:42:21.936Z,51.15
2018-07-28T08:43:21.924Z,53.22
2018-07-28T08:44:21.942Z,52.21
2018-07-28T08:45:21.902Z,50.34
2018-07-28T08:46:21.919Z,49.25
2018-07-28T08:47:21.893Z,49.10
2018-07-28T08:48:21.884Z,50.41
2018-07-28T08:49:21.987Z,53.40
2018-07-28T08:50:21.869Z,55.45
2018-07-28T08:51:21.840Z,50.59
2018-07-28T08:52:21.841Z,47.20
2018-07-28T08:53:21.824Z,49.25
2018-07-28T08:54:21.822Z,50.31
2018-07-28T08:55:21.826Z,49.30
2018-07-28T08:56:21.783Z,47.33
2018-07-28T08:57:21.769Z,47.31
2018-07-28T08:58:21.785Z,47.01
2018-07-28T08:59:21.745Z,49.35
2018-07-28T09:00:21.757Z,48.37
2018-07-28T09:01:21.746Z,46.99
2018-07-28T09:02:21.715Z,46.37
2018-07-28T09:03:21.714Z,45.09
2018-07-28T09:04:21.711Z,42.52
2018-07-28T09:05:21.717Z,45.37
2018-07-28T09:06:21.672Z,45.37
2018-07-28T09:07:21.667Z,44.19
2018-07-28T09:08:21.670Z,45.37
2018-07-28T09:09:21.645Z,45.37
2018-07-28T09:10:21.644Z,45.45
2018-07-28T09:11:21.631Z,44.05
2018-07-28T09:12:21.618Z,44.15
2018-07-28T09:13:21.594Z,44.24
2018-07-28T09:14:21.585Z,44.64
2018-07-28T09:15:21.570Z,44.44
2018-07-28T09:16:21.647Z,44.22
2018-07-28T09:17:21.553Z,42.45
2018-07-28T09:18:21.540Z,40.80
2018-07-28T09:19:21.533Z,42.35
2018-07-28T09:20:21.516Z,41.27
2018-07-28T09:21:21.514Z,41.86
2018-07-28T09:22:21.521Z,43.43
2018-07-28T09:23:21.558Z,42.85
2018-07-28T09:24:21.475Z,42.14
2018-07-28T09:25:21.508Z,39.60
2018-07-28T09:26:21.447Z,39.60
2018-07-28T09:27:21.466Z,40.33
2018-07-28T09:28:21.448Z,40.64
2018-07-28T09:29:21.415Z,44.40
2018-07-28T09:30:21.414Z,44.70
2018-07-28T09:31:21.399Z,45.37
2018-07-28T09:32:21.389Z,43.87
2018-07-28T09:33:21.387Z,44.34
2018-07-28T09:34:21.403Z,43.16
2018-07-28T09:35:21.356Z,42.86
2018-07-28T09:36:21.374Z,43.16
2018-07-28T09:37:21.348Z,42.85
2018-07-28T09:38:21.367Z,41.94
2018-07-28T09:39:21.312Z,43.39
2018-07-28T09:40:21.342Z,42.32
2018-07-28T09:41:21.295Z,41.02
2018-07-28T09:42:21.292Z,42.29
2018-07-28T09:43:21.267Z,42.10
2018-07-28T09:44:21.284Z,41.58
2018-07-28T09:45:21.270Z,42.37
2018-07-28T09:46:21.289Z,41.29
2018-07-28T09:47:21.224Z,40.70
2018-07-28T09:48:21.215Z,40.90
2018-07-28T09:49:21.208Z,40.48
2018-07-28T09:50:21.210Z,40.21
2018-07-28T09:51:21.193Z,42.76
2018-07-28T09:52:21.205Z,40.31
2018-07-28T09:53:21.159Z,39.72
2018-07-28T09:54:21.161Z,38.35
2018-07-28T09:55:21.157Z,37.66
2018-07-28T09:56:21.223Z,41.98
2018-07-28T09:57:21.153Z,41.29
2018-07-28T09:58:21.104Z,40.21
2018-07-28T09:59:21.100Z,44.55
2018-07-28T10:00:21.097Z,42.79
2018-07-28T10:01:21.083Z,42.47
2018-07-28T10:02:21.083Z,43.05
2018-07-28T10:03:21.081Z,40.70
2018-07-28T10:04:21.038Z,42.18
2018-07-28T10:05:21.081Z,42.47
2018-07-28T10:06:21.020Z,44.16
2018-07-28T10:07:21.005Z,42.57
2018-07-28T10:08:20.999Z,41.49
2018-07-28T10:09:21.002Z,42.65
2018-07-28T10:10:20.978Z,41.27
2018-07-28T10:11:20.978Z,40.98
2018-07-28T10:12:20.985Z,41.76
2018-07-28T10:13:20.970Z,38.62
2018-07-28T10:14:20.938Z,39.82
2018-07-28T10:15:20.943Z,40.11
2018-07-28T10:16:21.036Z,40.21
2018-07-28T10:17:20.907Z,41.09
2018-07-28T10:18:20.888Z,39.72
2018-07-28T10:19:20.880Z,40.11
2018-07-28T10:20:20.866Z,39.06
2018-07-28T10:21:20.892Z,42.80
2018-07-28T10:22:20.879Z,42.49
2018-07-28T10:23:20.839Z,43.37
2018-07-28T10:24:20.827Z,42.37
2018-07-28T10:25:20.822Z,42.25
2018-07-28T10:26:20.820Z,42.65
2018-07-28T10:27:20.807Z,42.35
2018-07-28T10:28:20.786Z,39.11
2018-07-28T10:29:20.772Z,40.29
2018-07-28T10:30:20.762Z,39.70
2018-07-28T10:31:20.765Z,42.35
2018-07-28T10:32:20.741Z,41.27
2018-07-28T10:33:20.760Z,41.09
2018-07-28T10:34:20.717Z,42.79
2018-07-28T10:35:20.710Z,41.51
2018-07-28T10:36:20.777Z,41.41
2018-07-28T10:37:20.698Z,41.31
2018-07-28T10:38:20.706Z,40.53
2018-07-28T10:39:20.676Z,42.10
2018-07-28T10:40:20.664Z,39.37
2018-07-28T10:41:20.655Z,40.35
2018-07-28T10:42:20.636Z,39.88
2018-07-28T10:43:20.628Z,40.58
2018-07-28T10:44:20.625Z,42.25
2018-07-28T10:45:20.618Z,42.06
2018-07-28T10:46:20.615Z,44.42
2018-07-28T10:47:20.578Z,42.94
2018-07-28T10:48:20.575Z,41.69
2018-07-28T10:49:20.567Z,42.47
2018-07-28T10:50:20.555Z,42.30
2018-07-28T10:51:20.567Z,43.75
2018-07-28T10:52:20.528Z,44.44
2018-07-28T10:53:20.519Z,42.77
2018-07-28T10:54:20.505Z,42.18
2018-07-28T10:55:20.509Z,44.73
2018-07-28T10:56:20.530Z,42.79
2018-07-28T10:57:20.480Z,44.17
2018-07-28T10:58:20.467Z,42.20
2018-07-28T10:59:20.456Z,42.32
2018-07-28T11:00:20.447Z,43.30
2018-07-28T11:01:20.430Z,44.48
2018-07-28T11:02:20.452Z,45.07
2018-07-28T11:03:20.443Z,43.52
2018-07-28T11:04:20.400Z,43.71
2018-07-28T11:05:20.388Z,43.05
2018-07-28T11:06:21.043Z,43.38
2018-07-28T11:07:20.419Z,44.98
2018-07-28T11:08:20.364Z,45.38
2018-07-28T11:09:20.402Z,43.43
2018-07-28T11:10:20.333Z,43.74
2018-07-28T11:11:20.317Z,42.29
2018-07-28T11:12:20.311Z,43.21
2018-07-28T11:13:20.326Z,43.13
2018-07-28T11:14:20.314Z,44.05
2018-07-28T11:15:20.281Z,43.67
2018-07-28T11:16:20.267Z,45.78
2018-07-28T11:17:20.251Z,46.09
2018-07-28T11:18:20.259Z,45.82
2018-07-28T11:19:20.234Z,48.60
2018-07-28T11:20:20.223Z,48.10
2018-07-28T11:21:20.220Z,49.41
2018-07-28T11:22:20.199Z,48.05
2018-07-28T11:23:20.208Z,49.66
2018-07-28T11:24:20.175Z,50.78
2018-07-28T11:25:20.205Z,50.78
2018-07-28T11:26:20.242Z,50.80
2018-07-28T11:27:20.151Z,50.50
2018-07-28T11:28:20.165Z,49.80
2018-07-28T11:29:20.125Z,50.70
2018-07-28T11:30:20.114Z,51.03
2018-07-28T11:31:20.107Z,50.82
2018-07-28T11:32:20.091Z,52.02
2018-07-28T11:33:20.148Z,52.12
2018-07-28T11:34:20.097Z,52.02
2018-07-28T11:35:20.053Z,52.42
2018-07-28T11:36:20.057Z,53.04
2018-07-28T11:37:20.032Z,51.54
2018-07-28T11:38:20.023Z,51.47
2018-07-28T11:39:20.023Z,54.26
2018-07-28T11:40:20.023Z,57.77
2018-07-28T11:41:20.028Z,59.79
2018-07-28T11:42:19.991Z,60.45
2018-07-28T11:43:19.959Z,61.27
2018-07-28T11:44:19.953Z,61.98
2018-07-28T11:45:19.960Z,63.37
2018-07-28T11:46:19.933Z,62.97
2018-07-28T11:47:19.914Z,63.27
2018-07-28T11:48:19.903Z,65.07
2018-07-28T11:49:19.888Z,65.50
2018-07-28T11:50:19.902Z,64.80
2018-07-28T11:51:19.927Z,65.90
2018-07-28T11:52:19.878Z,68.03
2018-07-28T11:53:19.872Z,68.33
2018-07-28T11:54:19.834Z,66.96
2018-07-28T11:55:19.828Z,67.06
2018-07-28T11:56:19.843Z,66.59
2018-07-28T11:57:19.814Z,68.96
2018-07-28T11:58:19.847Z,69.19
2018-07-28T11:59:19.800Z,70.86
2018-07-28T12:00:19.772Z,70.76
2018-07-28T12:01:19.763Z,70.26
2018-07-28T12:02:19.770Z,70.16
2018-07-28T12:03:19.751Z,70.16
2018-07-28T12:04:19.736Z,70.26
2018-07-28T12:05:19.717Z,68.26
2018-07-28T12:06:19.708Z,71.76
2018-07-28T12:07:19.694Z,69.82
2018-07-28T12:08:19.695Z,70.53
2018-07-28T12:09:19.702Z,71.33
2018-07-28T12:10:19.660Z,72.83
2018-07-28T12:11:19.650Z,71.62
2018-07-28T12:12:19.638Z,71.42
2018-07-28T12:13:19.657Z,72.86
2018-07-28T12:14:19.618Z,71.33
2018-07-28T12:15:19.624Z,71.92
2018-07-28T12:16:19.616Z,71.83
2018-07-28T12:17:19.612Z,72.79
2018-07-28T12:18:19.609Z,70.69
2018-07-28T12:19:19.586Z,70.53
2018-07-28T12:20:19.549Z,71.89
2018-07-28T12:21:19.570Z,72.53
2018-07-28T12:22:19.555Z,74.22
2018-07-28T12:23:19.543Z,75.13
2018-07-28T12:24:19.560Z,75.79
2018-07-28T12:25:19.496Z,77.19
2018-07-28T12:26:19.492Z,78.16
2018-07-28T12:27:19.493Z,80.41
2018-07-28T12:28:19.464Z,78.78
2018-07-28T12:29:19.509Z,80.10
2018-07-28T12:30:19.453Z,75.71
2018-07-28T12:31:19.434Z,72.32
2018-07-28T12:32:19.425Z,73.22
2018-07-28T12:33:19.430Z,71.32
2018-07-28T12:34:19.448Z,71.02
2018-07-28T12:35:19.386Z,72.68
2018-07-28T12:36:19.388Z,72.19
2018-07-28T12:37:19.361Z,72.55
2018-07-28T12:38:19.407Z,73.94
2018-07-28T12:39:19.364Z,75.31
2018-07-28T12:40:19.328Z,77.02
2018-07-28T12:41:19.315Z,72.31
2018-07-28T12:42:19.314Z,75.36
2018-07-28T12:43:19.330Z,70.89
2018-07-28T12:44:19.312Z,69.89
2018-07-28T12:45:19.306Z,69.39
2018-07-28T12:46:19.262Z,70.95
2018-07-28T12:47:19.253Z,69.36
2018-07-28T12:48:19.239Z,70.36
2018-07-28T12:49:19.257Z,67.97
2018-07-28T12:50:19.218Z,67.70
2018-07-28T12:51:19.240Z,69.53
2018-07-28T12:52:19.216Z,69.39